NCAR-RAP Real-Time Weather Data

Output produced by METARs form (14 October 2019  23:35 UTC)
found at http://weather.rap.ucar.edu/surface/
 
KACY 142154Z 26005KT 10SM CLR 22/07 A2995 RMK AO2 SLP142 T02170072
KACY 142054Z 29007KT 10SM CLR 23/08 A2994 RMK AO2 SLP137 T02280078 56008
KACY 141954Z 27007KT 10SM CLR 23/06 A2994 RMK AO2 SLP138 T02330061
KACY 141854Z 27010KT 10SM CLR 23/08 A2994 RMK AO2 SLP139 T02330083
KACY 141754Z 27007G17KT 10SM CLR 23/11 A2996 RMK AO2 SLP144 T02330106 10233 20150 58021
KACY 141654Z 26007KT 10SM CLR 22/12 A2999 RMK AO2 SLP153 T02170122
KACY 141554Z 29006KT 10SM SCT018 20/13 A3001 RMK AO2 SLP160 T02000133
KACY 141508Z 29005KT 10SM FEW013 18/13 A3002 RMK AO2 T01830133
KACY 141501Z 31004KT 10SM BKN013 18/13 A3002 RMK AO2 T01780133
KACY 141454Z 30005KT 10SM FEW010 BKN015 18/14 A3002 RMK AO2 SLP166 T01830139 58002
KACY 141449Z 30004KT 10SM SCT009 SCT016 18/14 A3003 RMK AO2
KACY 141416Z 30006KT 10SM BR OVC005 16/14 A3003 RMK AO2 CIG 003V010 T01610144
KACY 141354Z 31005KT 3SM BR OVC003 16/14 A3003 RMK AO2 SFC VIS 9 SLP168 T01610144
KACY 141352Z 29004KT 3SM BR OVC003 16/14 A3003 RMK AO2 SFC VIS 9
KACY 141332Z 30004KT 3/4SM BR OVC003 16/14 A3003 RMK AO2 SFC VIS 8 T01560144
KACY 141254Z 28003KT 2SM BR OVC003 15/14 A3002 RMK AO2 SFC VIS 9 SLP166 T01500144
KACY 141154Z 00000KT 1 1/2SM OVC003 15/14 A3000 RMK AO2 SFC VIS 9 SLP158 60007 70099 T01500139 10161 20150 53013
KACY 141136Z 00000KT 1 1/2SM BR OVC003 15/14 A2999 RMK AO2 SFC VIS 4 T01500144
KACY 141110Z 35003KT 1SM BR OVC002 15/14 A2998 RMK AO2 SFC VIS 4 T01500139
KACY 141102Z 00000KT 3SM BR OVC002 15/14 A2998 RMK AO2 T01500139
KACY 141054Z 35003KT 1 3/4SM BR OVC002 15/14 A2997 RMK AO2 SLP150 T01500139
KACY 141035Z 00000KT 1 1/4SM BR OVC002 15/14 A2997 RMK AO2 T01500139
KACY 141028Z 01003KT 1 1/2SM BR OVC002 15/14 A2997 RMK AO2 T01500139
KACY 141008Z 34004KT 1 1/4SM BR OVC002 15/14 A2997 RMK AO2 T01500139
KACY 140954Z 34004KT 1 3/4SM BR OVC002 15/14 A2996 RMK AO2 SLP145 T01500139
KACY 140945Z 02004KT 1 1/2SM BR OVC003 15/14 A2996 RMK AO2 T01500139
KACY 140931Z 00000KT 3/4SM BR VV002 15/14 A2996 RMK AO2 TWR VIS 2 T01500139
KACY 140921Z 02003KT 1 1/4SM BR OVC002 15/14 A2996 RMK AO2 TWR VIS 2 T01500139
KACY 140914Z 00000KT 2SM BR OVC002 15/14 A2996 RMK AO2 SFC VIS 4 T01500139
KACY 140854Z 35004KT 10SM OVC002 15/14 A2996 RMK AO2 SLP145 60007 T01500139 55004
KACY 140754Z 00000KT 10SM OVC003 16/14 A2995 RMK AO2 RAE04 SLP141 P0000 T01560144
KACY 140654Z 35003KT 3SM -RA BR BKN003 BKN012 OVC023 16/14 A2996 RMK AO2 RAE45B49 CIG 002V006 SLP144 P0007 T01560144
KACY 140647Z 35003KT 5SM BR BKN003 BKN012 OVC017 16/14 A2996 RMK AO2 RAE45 CIG 002V007 P0007 T01560144
KACY 140642Z 34003KT 5SM -RA BR SCT003 BKN012 OVC017 16/14 A2997 RMK AO2 P0007 T01560144
KACY 140629Z 35003KT 4SM -RA BR BKN003 OVC016 16/15 A2997 RMK AO2 P0006 T01560150
KACY 140620Z 34004KT 4SM -RA BR SCT003 BKN008 OVC028 16/15 A2997 RMK AO2 P0006 T01610150
KACY 140613Z 34003KT 3SM -RA BR FEW003 BKN016 OVC026 16/15 A2997 RMK AO2 P0005 T01610150
KACY 140554Z 00000KT 2SM RA BR FEW003 BKN022 OVC026 16/15 A2997 RMK AO2 VIS 1 1/2V3 SLP148 P0051 60084 T01610150 10167 20156 56005
KACY 140550Z 00000KT 2SM +RA BR FEW011 BKN019 OVC026 16/15 A2997 RMK AO2 VIS 1 1/2V3 P0050
KACY 140536Z 00000KT 3SM -RA BR SCT011 BKN018 OVC029 16/15 A2997 RMK AO2 P0044 T01610150
KACY 140524Z 01005KT 2SM +RA BR SCT007 BKN011 OVC022 16/15 A2997 RMK AO2 P0039 T01610150
KACY 140518Z 02006KT 1 1/2SM +RA BR BKN007 BKN016 OVC030 16/15 A2997 RMK AO2 P0036 T01610150
KACY 140509Z 05003KT 1 1/4SM +RA BR OVC004 16/15 A2997 RMK AO2 P0017 T01610150
KACY 140504Z 02003KT 1 3/4SM +RA BR OVC006 16/15 A2998 RMK AO2 P0006 T01610150
KACY 140454Z 03005KT 4SM RA BR OVC006 16/15 A2998 RMK AO2 SLP150 P0006 T01610150 402000100
KACY 140415Z 01004KT 5SM -RA BR OVC005 16/15 A2999 RMK AO2 P0004 T01610150
KACY 140354Z 08005KT 5SM -RA BR OVC003 16/15 A2999 RMK AO2 SLP154 P0014 T01610150
KACY 140337Z 35005KT 5SM -RA BR OVC004 16/15 A2999 RMK AO2 P0014 T01610150
KACY 140312Z 06004KT 4SM RA BR OVC005 16/15 A3000 RMK AO2 P0011 T01610150
KACY 140254Z AUTO 07004KT 2 1/2SM +RA BR BKN005 OVC010 16/15 A3000 RMK AO2 RAB0157 SLP158 P0008 60013 T01610150 58013
KACY 140227Z AUTO 10005KT 6SM -RA BR OVC009 16/15 A3001 RMK AO2 RAB0157 CIG 005V013 P0003 T01610150
KACY 140154Z AUTO 00000KT 10SM BKN013 OVC019 16/15 A3002 RMK AO2 RAB0056E48 SLP166 P0004 T01610150
KACY 140054Z AUTO 11006KT 10SM BKN026 BKN049 OVC090 16/14 A3002 RMK AO2 RAE19 SLP166 P0001 T01610144
KACY 132354Z AUTO 10005KT 9SM -RA SCT036 BKN045 OVC065 16/14 A3004 RMK AO2 RAB22 SLP171 P0005 60008 T01560139 10194 20156 58006
KACY 132254Z AUTO 09003KT 10SM BKN055 OVC075 16/14 A3004 RMK AO2 RAB14E24 SLP173 P0000 T01610144
KACY 132154Z AUTO 09003KT 10SM FEW046 OVC060 16/14 A3006 RMK AO2 RAE08 SLP178 P0000 T01610139
KACY 132054Z AUTO 12006KT 7SM -RA OVC100 16/14 A3006 RMK AO2 RAB06 SLP177 P0003 60003 T01610139 58010
KACY 131954Z 14006KT 10SM BKN047 BKN060 OVC120 18/12 A3008 RMK AO2 SLP184 T01830117
KACY 131854Z 12008KT 10SM OVC055 18/12 A3007 RMK AO2 SLP182 T01830117
KACY 131754Z 14007KT 10SM OVC055 19/10 A3009 RMK AO2 SLP187 T01890100 10200 20106 56011
KACY 131654Z 12008KT 10SM BKN060 19/08 A3010 RMK AO2 SLP190 T01940083
KACY 131554Z 12006KT 10SM BKN070 BKN120 18/09 A3010 RMK AO2 SLP193 T01830089
KACY 131454Z 34004KT 10SM BKN070 OVC090 17/09 A3012 RMK AO2 SLP199 T01670089 53002
KACY 131354Z 01006KT 10SM BKN070 OVC090 15/09 A3011 RMK AO2 SLP197 T01500089
KACY 131254Z 35006KT 10SM SCT095 13/07 A3011 RMK AO2 SLP195 T01280072
KACY 131154Z 30004KT 10SM BKN085 11/07 A3011 RMK AO2 SLP196 T01060072 10133 20100 53019
KACY 131054Z 32004KT 10SM FEW050 11/07 A3009 RMK AO2 SLP188 T01060067
KACY 130954Z 31004KT 10SM BKN050 11/08 A3007 RMK AO2 SLP183 T01060078
KACY 130854Z 31005KT 10SM FEW050 12/08 A3006 RMK AO2 SLP177 T01170083 53009
KACY 130754Z 32006KT 10SM OVC050 13/10 A3004 RMK AO2 SLP172 T01330100
KACY 130654Z 30006KT 10SM CLR 12/09 A3003 RMK AO2 SLP170 T01220094
KACY 130554Z 00000KT 10SM CLR 12/09 A3003 RMK AO2 SLP168 T01220089 10183 20122 53004
KACY 130454Z 26004KT 10SM FEW100 14/10 A3002 RMK AO2 SLP164 T01440100 402330089
KACY 130354Z 27004KT 10SM CLR 16/10 A3001 RMK AO2 SLP163 T01560100
KACY 130254Z AUTO 31004KT 10SM CLR 15/09 A3002 RMK AO2 SLP164 T01500094 51010
KACY 130154Z 29005KT 10SM CLR 17/10 A3002 RMK AO2 SLP164 T01670100
KACY 130054Z 30003KT 10SM FEW043 BKN120 18/11 A3000 RMK AO2 SLP157 T01780106
KACY 122354Z 00000KT 10SM SCT110 18/12 A2999 RMK AO2 SLP153 T01780117 10233 20172 53014